createdAt,value
2017-12-01T00:00:00.343Z,25.87
2017-12-01T00:02:27.804Z,24.37
2017-12-01T00:04:55.273Z,22.33
2017-12-01T00:07:22.741Z,24.77
2017-12-01T00:09:50.998Z,20.23
2017-12-01T00:12:18.445Z,24.00
2017-12-01T00:14:45.960Z,23.17
2017-12-01T00:17:13.431Z,20.47
2017-12-01T00:19:40.900Z,25.60
2017-12-01T00:22:08.365Z,23.50
2017-12-01T00:24:35.845Z,29.00
2017-12-01T00:27:03.325Z,24.03
2017-12-01T00:29:31.549Z,20.60
2017-12-01T00:32:00.334Z,23.60
2017-12-01T00:34:27.794Z,23.60
2017-12-01T00:36:55.266Z,23.00
2017-12-01T00:39:22.731Z,23.20
2017-12-01T00:41:50.207Z,24.10
2017-12-01T00:44:17.674Z,26.60
2017-12-01T00:46:45.156Z,22.40
2017-12-01T00:49:12.619Z,21.50
2017-12-01T00:51:40.093Z,22.77
2017-12-01T00:54:07.554Z,23.53
2017-12-01T00:56:35.043Z,23.60
2017-12-01T00:59:02.489Z,19.80
2017-12-01T01:01:29.967Z,22.23
2017-12-01T01:03:57.426Z,21.77
2017-12-01T01:06:24.889Z,20.40
2017-12-01T01:08:52.353Z,20.90
2017-12-01T01:11:19.817Z,22.10
2017-12-01T01:13:48.042Z,18.60
2017-12-01T01:16:15.518Z,21.17
2017-12-01T01:18:42.991Z,22.80
2017-12-01T01:21:10.468Z,21.30
2017-12-01T01:23:38.686Z,19.87
2017-12-01T01:26:06.167Z,20.67
2017-12-01T01:28:33.621Z,20.80
2017-12-01T01:31:01.095Z,21.27
2017-12-01T01:33:28.561Z,23.80
2017-12-01T01:35:56.027Z,22.80
2017-12-01T01:38:23.497Z,18.30
2017-12-01T01:40:51.731Z,21.93
2017-12-01T01:43:19.208Z,21.60
2017-12-01T01:45:46.665Z,22.73
2017-12-01T01:48:14.130Z,18.93
2017-12-01T01:50:41.598Z,22.33
2017-12-01T01:53:09.838Z,19.97
2017-12-01T01:55:37.298Z,20.70
2017-12-01T01:58:04.761Z,22.70
2017-12-01T02:00:32.221Z,20.23
2017-12-01T02:02:59.692Z,21.63
2017-12-01T02:05:27.157Z,23.73
2017-12-01T02:07:55.403Z,23.17
2017-12-01T02:10:22.862Z,21.70
2017-12-01T02:12:50.338Z,20.90
2017-12-01T02:15:17.817Z,18.07
2017-12-01T02:17:46.066Z,17.23
2017-12-01T02:20:13.531Z,20.00
2017-12-01T02:22:41.008Z,21.23
2017-12-01T02:25:09.233Z,17.30
2017-12-01T02:27:36.712Z,18.17
2017-12-01T02:30:04.175Z,19.87
2017-12-01T02:32:31.645Z,19.17
2017-12-01T02:34:59.109Z,16.83
2017-12-01T02:37:27.359Z,18.47
2017-12-01T02:39:54.821Z,18.63
2017-12-01T02:42:22.289Z,18.40
2017-12-01T02:44:49.761Z,19.73
2017-12-01T02:47:17.991Z,17.83
2017-12-01T02:49:45.474Z,18.07
2017-12-01T02:52:13.039Z,17.70
2017-12-01T02:54:40.510Z,17.20
2017-12-01T02:57:08.801Z,16.63
2017-12-01T02:59:36.245Z,17.63
2017-12-01T03:02:04.502Z,17.00
2017-12-01T03:04:31.981Z,19.27
2017-12-01T03:06:59.434Z,16.70
2017-12-01T03:09:26.908Z,19.20
2017-12-01T03:11:55.142Z,20.97
2017-12-01T03:14:22.609Z,16.23
2017-12-01T03:16:50.073Z,20.67
2017-12-01T03:19:17.537Z,18.33
2017-12-01T03:21:45.002Z,15.60
2017-12-01T03:24:13.261Z,19.50
2017-12-01T03:26:40.734Z,18.10
2017-12-01T03:29:08.207Z,20.87
2017-12-01T03:31:36.462Z,19.83
2017-12-01T03:34:04.014Z,19.00
2017-12-01T03:36:31.485Z,18.60
2017-12-01T03:38:59.038Z,17.97
2017-12-01T03:41:26.509Z,20.43
2017-12-01T03:43:54.050Z,23.90
2017-12-01T03:46:21.516Z,17.50
2017-12-01T03:48:49.071Z,19.93
2017-12-01T03:51:16.540Z,25.90
2017-12-01T03:53:44.008Z,22.43
2017-12-01T03:56:12.269Z,17.47
2017-12-01T03:58:39.730Z,18.53
2017-12-01T04:01:07.971Z,19.90
2017-12-01T04:03:35.466Z,23.13
2017-12-01T04:06:02.942Z,23.20
2017-12-01T04:08:31.193Z,20.90
2017-12-01T04:10:58.752Z,21.77
2017-12-01T04:13:26.315Z,22.03
2017-12-01T04:15:53.791Z,20.13
2017-12-01T04:18:22.047Z,21.70
2017-12-01T04:20:49.536Z,22.13
2017-12-01T04:23:17.767Z,21.23
2017-12-01T04:25:45.252Z,22.23
2017-12-01T04:28:13.515Z,22.07
2017-12-01T04:30:40.995Z,20.90
2017-12-01T04:33:09.246Z,23.53
2017-12-01T04:35:36.722Z,23.30
2017-12-01T04:38:04.964Z,22.00
2017-12-01T04:40:32.442Z,22.27
2017-12-01T04:42:59.917Z,23.97
2017-12-01T04:45:28.167Z,28.47
2017-12-01T04:47:55.638Z,21.60
2017-12-01T04:50:23.888Z,22.60
2017-12-01T04:52:51.355Z,21.70
2017-12-01T04:55:18.843Z,23.70
2017-12-01T04:57:46.389Z,24.77
2017-12-01T05:00:13.947Z,24.33
2017-12-01T05:02:41.507Z,24.27
2017-12-01T05:05:08.988Z,21.90
2017-12-01T05:07:37.269Z,25.87
2017-12-01T05:10:05.499Z,19.67
2017-12-01T05:12:32.979Z,20.50
2017-12-01T05:15:00.451Z,24.10
2017-12-01T05:17:28.700Z,15.27
2017-12-01T05:19:56.197Z,18.67
2017-12-01T05:22:24.438Z,18.43
2017-12-01T05:24:52.005Z,16.77
2017-12-01T05:27:19.484Z,16.87
2017-12-01T05:29:47.714Z,18.67
2017-12-01T05:32:15.216Z,20.20
2017-12-01T05:34:42.964Z,16.43
2017-12-01T05:37:10.446Z,15.80
2017-12-01T05:39:38.678Z,13.37
2017-12-01T05:42:06.164Z,19.00
2017-12-01T05:44:33.635Z,17.33
2017-12-01T05:47:01.879Z,16.00
2017-12-01T05:49:29.362Z,13.33
2017-12-01T05:51:56.859Z,15.70
2017-12-01T05:54:24.336Z,14.67
2017-12-01T05:56:51.807Z,15.60
2017-12-01T05:59:19.281Z,14.10
2017-12-01T06:01:46.750Z,16.17
2017-12-01T06:04:15.029Z,11.97
2017-12-01T06:06:42.575Z,15.80
2017-12-01T06:09:10.052Z,15.90
2017-12-01T06:11:38.308Z,12.00
2017-12-01T06:14:05.775Z,13.60
2017-12-01T06:16:33.255Z,18.17
2017-12-01T06:19:01.510Z,13.53
2017-12-01T06:21:28.975Z,15.23
2017-12-01T06:23:57.228Z,15.00
2017-12-01T06:26:24.903Z,13.00
2017-12-01T06:28:52.404Z,15.97
2017-12-01T06:31:19.875Z,16.00
2017-12-01T06:33:47.343Z,18.80
2017-12-01T06:36:14.808Z,10.60
2017-12-01T06:38:42.284Z,13.13
2017-12-01T06:41:09.847Z,15.03
2017-12-01T06:43:37.323Z,16.30
2017-12-01T06:46:05.560Z,14.37
2017-12-01T06:48:33.144Z,11.93
2017-12-01T06:51:00.694Z,15.57
2017-12-01T06:53:28.166Z,10.57
2017-12-01T06:55:55.629Z,19.20
2017-12-01T06:58:23.176Z,10.83
2017-12-01T07:00:50.647Z,10.43
2017-12-01T07:03:18.124Z,13.70
2017-12-01T07:05:46.375Z,13.20
2017-12-01T07:08:13.856Z,15.10
2017-12-01T07:10:42.100Z,15.53
2017-12-01T07:13:09.580Z,15.30
2017-12-01T07:15:37.810Z,20.47
2017-12-01T07:18:05.287Z,19.13
2017-12-01T07:20:32.754Z,20.27
2017-12-01T07:23:00.280Z,19.37
2017-12-01T07:25:27.750Z,16.93
2017-12-01T07:27:55.237Z,23.53
2017-12-01T07:30:22.697Z,26.07
2017-12-01T07:32:50.172Z,25.70
2017-12-01T07:35:18.413Z,23.07
2017-12-01T07:37:45.893Z,29.17
2017-12-01T07:40:14.170Z,25.70
2017-12-01T07:42:41.631Z,28.30
2017-12-01T07:45:12.699Z,29.43
2017-12-01T07:47:40.173Z,29.90
2017-12-01T07:50:07.647Z,26.07
2017-12-01T07:52:35.110Z,25.07
2017-12-01T07:55:02.591Z,27.63
2017-12-01T07:57:30.068Z,28.17
2017-12-01T07:59:58.315Z,36.43
2017-12-01T08:02:25.787Z,34.40
2017-12-01T08:04:53.263Z,31.10
2017-12-01T08:07:21.499Z,33.30
2017-12-01T08:09:49.022Z,27.23
2017-12-01T08:12:16.477Z,26.23
2017-12-01T08:14:43.955Z,28.20
2017-12-01T08:17:33.204Z,28.83
2017-12-01T08:20:00.684Z,23.80
2017-12-01T08:22:40.017Z,23.80
2017-12-01T08:25:19.554Z,31.37
2017-12-01T08:27:47.015Z,28.30
2017-12-01T08:30:14.497Z,28.43
2017-12-01T08:32:41.960Z,27.03
2017-12-01T08:35:09.536Z,26.10
2017-12-01T08:37:37.134Z,26.23
2017-12-01T08:40:04.658Z,27.93
2017-12-01T08:42:32.140Z,24.83
2017-12-01T08:45:00.383Z,28.37
2017-12-01T08:47:27.855Z,29.47
2017-12-01T08:49:55.409Z,25.73
2017-12-01T08:52:23.002Z,29.23
2017-12-01T08:54:50.523Z,28.90
2017-12-01T08:57:17.988Z,28.90
2017-12-01T08:59:45.464Z,25.70
2017-12-01T09:02:13.928Z,21.50
2017-12-01T09:04:41.400Z,23.30
2017-12-01T09:07:09.642Z,24.40
2017-12-01T09:09:37.219Z,26.83
2017-12-01T09:12:04.691Z,23.40
2017-12-01T09:14:32.935Z,21.03
2017-12-01T09:17:00.406Z,21.50
2017-12-01T09:19:27.888Z,23.03
2017-12-01T09:21:56.153Z,17.53
2017-12-01T09:24:23.708Z,22.30
2017-12-01T09:26:51.195Z,17.63
2017-12-01T09:29:19.436Z,19.67
2017-12-01T09:31:47.099Z,19.83
2017-12-01T09:34:14.568Z,21.37
2017-12-01T09:36:42.812Z,18.10
2017-12-01T09:39:10.307Z,20.00
2017-12-01T09:41:37.791Z,22.53
2017-12-01T09:44:05.260Z,19.47
2017-12-01T09:46:32.739Z,18.77
2017-12-01T09:49:00.220Z,21.23
2017-12-01T09:51:27.699Z,19.13
2017-12-01T09:53:55.183Z,19.97
2017-12-01T09:56:22.981Z,22.30
2017-12-01T09:58:50.486Z,19.53
2017-12-01T10:01:18.723Z,21.67
2017-12-01T10:03:46.190Z,19.80
2017-12-01T10:06:13.764Z,25.83
2017-12-01T10:08:41.231Z,19.67
2017-12-01T10:11:09.484Z,22.70
2017-12-01T10:13:36.942Z,22.50
2017-12-01T10:16:04.430Z,23.90
2017-12-01T10:18:32.672Z,24.67
2017-12-01T10:21:00.256Z,21.30
2017-12-01T10:23:27.766Z,19.40
2017-12-01T10:25:55.279Z,21.00
2017-12-01T10:28:22.757Z,25.13
2017-12-01T10:30:51.008Z,20.67
2017-12-01T10:33:18.501Z,21.43
2017-12-01T10:35:46.841Z,25.80
2017-12-01T10:38:14.339Z,24.90
2017-12-01T10:40:41.828Z,20.10
2017-12-01T10:43:09.334Z,22.20
2017-12-01T10:45:36.903Z,20.90
2017-12-01T10:48:05.199Z,23.60
2017-12-01T10:50:32.679Z,23.23
2017-12-01T10:53:00.151Z,24.20
2017-12-01T10:55:27.726Z,19.80
2017-12-01T10:57:55.286Z,24.00
2017-12-01T11:00:22.911Z,18.00
2017-12-01T11:02:50.444Z,18.03
2017-12-01T11:05:18.774Z,20.83
2017-12-01T11:07:46.254Z,21.53
2017-12-01T11:10:14.552Z,22.70
2017-12-01T11:12:42.809Z,22.37
2017-12-01T11:15:10.287Z,27.20
2017-12-01T11:17:38.524Z,27.63
2017-12-01T11:20:05.998Z,24.23
2017-12-01T11:22:33.460Z,22.73
2017-12-01T11:25:00.934Z,24.40
2017-12-01T11:27:32.115Z,24.00
2017-12-01T11:30:02.091Z,25.53
2017-12-01T11:32:29.635Z,24.50
2017-12-01T11:34:57.114Z,23.20
2017-12-01T11:37:25.355Z,17.77
2017-12-01T11:39:52.822Z,19.20
2017-12-01T11:42:20.306Z,14.17
2017-12-01T11:44:48.548Z,16.17
2017-12-01T11:47:16.027Z,15.77
2017-12-01T11:49:43.495Z,13.23
2017-12-01T11:52:11.731Z,11.07
2017-12-01T11:54:39.194Z,11.67
2017-12-01T11:57:07.025Z,10.80
2017-12-01T11:59:34.532Z,10.73
2017-12-01T12:02:02.004Z,7.03
2017-12-01T12:04:29.468Z,7.50
2017-12-01T12:06:56.940Z,9.27
2017-12-01T12:09:25.186Z,9.37
2017-12-01T12:11:52.663Z,10.17
2017-12-01T12:14:20.892Z,11.70
2017-12-01T12:16:48.359Z,12.37
2017-12-01T12:19:21.694Z,9.80
2017-12-01T12:21:49.150Z,12.10
2017-12-01T12:24:17.390Z,14.60
2017-12-01T12:26:44.869Z,12.30
2017-12-01T12:29:12.351Z,11.40
2017-12-01T12:31:40.579Z,11.27
2017-12-01T12:34:08.055Z,14.47
2017-12-01T12:36:35.523Z,9.10
2017-12-01T12:39:03.004Z,10.73
2017-12-01T12:41:31.238Z,11.40
2017-12-01T12:43:58.726Z,12.20
2017-12-01T12:46:26.991Z,13.93
2017-12-01T12:48:54.471Z,10.63
2017-12-01T12:51:22.703Z,15.03
2017-12-01T12:53:50.177Z,11.67
2017-12-01T12:56:17.643Z,11.27
2017-12-01T12:58:45.208Z,13.50
2017-12-01T13:01:12.675Z,13.17
2017-12-01T13:03:40.143Z,11.10
2017-12-01T13:06:08.376Z,11.53
2017-12-01T13:08:35.861Z,17.83
2017-12-01T13:11:03.328Z,17.80
2017-12-01T13:13:31.620Z,17.90
2017-12-01T13:15:59.855Z,14.90
2017-12-01T13:18:27.332Z,15.43
2017-12-01T13:20:54.791Z,17.77
2017-12-01T13:23:23.043Z,17.13
2017-12-01T13:25:50.516Z,16.47
2017-12-01T13:28:17.997Z,15.10
2017-12-01T13:30:46.248Z,16.83
2017-12-01T13:33:13.723Z,16.47
2017-12-01T13:35:41.986Z,17.07
2017-12-01T13:38:09.545Z,16.03
2017-12-01T13:40:37.020Z,16.80
2017-12-01T13:43:05.272Z,15.83
2017-12-01T13:45:32.747Z,15.53
2017-12-01T13:48:01.010Z,22.87
2017-12-01T13:50:28.484Z,17.17
2017-12-01T13:52:56.724Z,19.13
2017-12-01T13:55:24.207Z,19.90
2017-12-01T13:57:51.679Z,21.33
2017-12-01T14:00:19.927Z,21.30
2017-12-01T14:02:47.400Z,17.80
2017-12-01T14:05:14.884Z,16.60
2017-12-01T14:07:43.185Z,16.83
2017-12-01T14:10:11.390Z,19.53
2017-12-01T14:12:38.867Z,19.77
2017-12-01T14:15:06.338Z,23.10
2017-12-01T14:17:34.607Z,21.10
2017-12-01T14:20:02.098Z,22.77
2017-12-01T14:22:29.619Z,23.70
2017-12-01T14:24:57.096Z,20.77
2017-12-01T14:27:25.332Z,23.47
2017-12-01T14:29:52.802Z,21.87
2017-12-01T14:32:20.368Z,23.30
2017-12-01T14:34:47.935Z,23.90
2017-12-01T14:37:15.496Z,22.70
2017-12-01T14:39:43.004Z,25.50
2017-12-01T14:42:10.476Z,23.17
2017-12-01T14:44:37.947Z,23.50
2017-12-01T14:47:05.432Z,26.23
2017-12-01T14:49:32.987Z,26.77
2017-12-01T14:52:00.543Z,30.47
2017-12-01T14:54:28.024Z,28.00
2017-12-01T14:56:56.273Z,25.70
2017-12-01T14:59:23.751Z,29.57
2017-12-01T15:01:51.219Z,26.77
2017-12-01T15:04:19.455Z,24.53
2017-12-01T15:06:46.948Z,24.57
2017-12-01T15:09:15.198Z,27.07
2017-12-01T15:11:42.679Z,25.73
2017-12-01T15:14:10.236Z,33.67
2017-12-01T15:16:37.719Z,28.63
2017-12-01T15:19:05.259Z,32.70
2017-12-01T15:21:32.735Z,31.37
2017-12-01T15:24:00.271Z,33.40
2017-12-01T15:26:28.650Z,34.60
2017-12-01T15:28:56.121Z,32.57
2017-12-01T15:31:24.364Z,33.13
2017-12-01T15:33:51.839Z,31.53
2017-12-01T15:36:19.322Z,35.03
2017-12-01T15:38:47.559Z,35.80
2017-12-01T15:41:15.026Z,32.97
2017-12-01T15:43:42.495Z,33.50
2017-12-01T15:46:09.980Z,29.87
2017-12-01T15:48:37.447Z,32.77
2017-12-01T15:51:04.927Z,31.00
2017-12-01T15:53:32.439Z,32.73
2017-12-01T15:56:01.023Z,29.10
2017-12-01T15:58:28.516Z,36.17
2017-12-01T16:00:55.978Z,31.20
2017-12-01T16:03:23.466Z,36.47
2017-12-01T16:05:50.943Z,32.93
2017-12-01T16:08:18.419Z,34.50
2017-12-01T16:10:46.670Z,40.80
2017-12-01T16:13:14.159Z,33.60
2017-12-01T16:15:42.392Z,35.17
2017-12-01T16:18:09.884Z,37.50
2017-12-01T16:20:38.131Z,39.77
2017-12-01T16:23:05.613Z,39.60
2017-12-01T16:25:33.086Z,32.27
2017-12-01T16:28:01.324Z,32.23
2017-12-01T16:30:28.786Z,26.47
2017-12-01T16:33:00.283Z,27.53
2017-12-01T16:35:24.507Z,27.33
2017-12-01T16:37:51.983Z,26.03
2017-12-01T16:40:19.473Z,27.80
2017-12-01T16:42:46.975Z,29.93
2017-12-01T16:45:14.516Z,26.40
2017-12-01T16:47:42.006Z,28.90
2017-12-01T16:50:09.472Z,37.13
2017-12-01T16:52:36.999Z,31.90
2017-12-01T16:55:04.458Z,33.40
2017-12-01T16:57:31.939Z,27.60
2017-12-01T16:59:59.431Z,27.57
2017-12-01T17:02:27.683Z,25.13
2017-12-01T17:04:55.320Z,26.17
2017-12-01T17:07:22.819Z,24.60
2017-12-01T17:09:50.282Z,26.43
2017-12-01T17:12:18.531Z,22.60
2017-12-01T17:14:46.001Z,26.40
2017-12-01T17:17:13.480Z,30.20
2017-12-01T17:19:41.715Z,24.33
2017-12-01T17:22:09.196Z,22.83
2017-12-01T17:24:36.793Z,28.77
2017-12-01T17:27:04.320Z,25.93
2017-12-01T17:29:31.787Z,25.83
2017-12-01T17:32:00.037Z,21.43
2017-12-01T17:34:27.521Z,26.43
2017-12-01T17:36:54.982Z,26.93
2017-12-01T17:39:23.522Z,26.03
2017-12-01T17:41:51.011Z,28.20
2017-12-01T17:44:18.498Z,27.03
2017-12-01T17:46:46.028Z,28.43
2017-12-01T17:49:13.507Z,27.70
2017-12-01T17:51:41.745Z,26.03
2017-12-01T17:54:09.316Z,24.50
2017-12-01T17:56:36.783Z,27.10
2017-12-01T17:59:04.336Z,28.80
2017-12-01T18:01:31.807Z,25.93
2017-12-01T18:03:59.282Z,25.50
2017-12-01T18:06:27.543Z,24.23
2017-12-01T18:08:55.811Z,23.10
2017-12-01T18:11:23.279Z,13.77
2017-12-01T18:13:51.538Z,19.03
2017-12-01T18:16:19.008Z,17.67
2017-12-01T18:18:46.484Z,19.50
2017-12-01T18:21:14.710Z,22.23
2017-12-01T18:23:42.187Z,20.93
2017-12-01T18:26:10.439Z,21.90
2017-12-01T18:28:37.929Z,23.23
2017-12-01T18:31:05.403Z,20.53
2017-12-01T18:33:33.651Z,18.20
2017-12-01T18:36:01.127Z,22.07
2017-12-01T18:38:29.376Z,21.30
2017-12-01T18:40:56.855Z,24.10
2017-12-01T18:43:24.423Z,20.80
2017-12-01T18:45:51.887Z,21.70
2017-12-01T18:48:20.147Z,23.30
2017-12-01T18:50:47.631Z,19.60
2017-12-01T18:53:15.871Z,22.80
2017-12-01T18:55:43.348Z,24.17
2017-12-01T18:58:10.855Z,25.63
2017-12-01T19:00:38.331Z,25.00
2017-12-01T19:03:05.795Z,21.87
2017-12-01T19:05:33.280Z,23.80
2017-12-01T19:08:00.834Z,26.73
2017-12-01T19:10:28.328Z,21.60
2017-12-01T19:12:55.803Z,21.10
2017-12-01T19:15:23.312Z,26.27
2017-12-01T19:17:50.779Z,22.20
2017-12-01T19:20:18.271Z,23.07
2017-12-01T19:22:45.735Z,21.50
2017-12-01T19:25:13.219Z,23.90
2017-12-01T19:27:40.690Z,22.67
2017-12-01T19:30:08.179Z,19.87
2017-12-01T19:32:36.411Z,28.70
2017-12-01T19:35:03.895Z,25.30
2017-12-01T19:37:31.363Z,26.60
2017-12-01T19:39:59.626Z,24.67
2017-12-01T19:42:27.099Z,25.27
2017-12-01T19:44:55.374Z,28.07
2017-12-01T19:47:22.845Z,24.60
2017-12-01T19:49:51.099Z,26.50
2017-12-01T19:52:20.456Z,33.00
2017-12-01T19:54:47.963Z,26.90
2017-12-01T19:57:15.442Z,28.73
2017-12-01T19:59:43.672Z,38.83
2017-12-01T20:02:11.257Z,34.50
2017-12-01T20:04:38.725Z,34.20
2017-12-01T20:07:06.986Z,31.63
2017-12-01T20:09:34.546Z,32.20
2017-12-01T20:12:02.029Z,31.17
2017-12-01T20:14:30.261Z,28.10
2017-12-01T20:16:57.743Z,29.97
2017-12-01T20:19:25.294Z,32.30
2017-12-01T20:21:52.776Z,29.57
2017-12-01T20:24:21.036Z,26.80
2017-12-01T20:26:48.610Z,39.03
2017-12-01T20:29:16.876Z,32.27
2017-12-01T20:31:44.356Z,31.93
2017-12-01T20:34:12.621Z,34.20
2017-12-01T20:36:40.096Z,32.37
2017-12-01T20:39:07.580Z,29.30
2017-12-01T20:41:35.054Z,29.50
2017-12-01T20:44:02.520Z,30.00
2017-12-01T20:46:30.009Z,32.30
2017-12-01T20:48:57.559Z,37.77
2017-12-01T20:51:25.036Z,31.33
2017-12-01T20:53:53.296Z,37.20
2017-12-01T20:56:20.767Z,35.63
2017-12-01T20:58:49.039Z,31.40
2017-12-01T21:01:16.508Z,33.27
2017-12-01T21:03:44.760Z,35.23
2017-12-01T21:06:12.327Z,40.33
2017-12-01T21:08:39.803Z,34.07
2017-12-01T21:11:08.052Z,34.37
2017-12-01T21:13:35.526Z,39.00
2017-12-01T21:16:03.004Z,40.17
2017-12-01T21:18:31.246Z,41.10
2017-12-01T21:20:58.710Z,47.97
2017-12-01T21:23:26.192Z,44.90
2017-12-01T21:25:54.456Z,38.20
2017-12-01T21:28:22.006Z,36.27
2017-12-01T21:30:49.483Z,33.83
2017-12-01T21:33:17.727Z,40.13
2017-12-01T21:35:45.200Z,34.50
2017-12-01T21:38:12.675Z,39.83
2017-12-01T21:40:40.927Z,41.23
2017-12-01T21:43:18.431Z,37.87
2017-12-01T21:45:45.968Z,39.03
2017-12-01T21:48:13.453Z,33.90
2017-12-01T21:50:40.927Z,38.80
2017-12-01T21:53:09.281Z,36.17
2017-12-01T21:55:36.839Z,40.13
2017-12-01T21:58:04.322Z,32.33
2017-12-01T22:00:32.559Z,32.67
2017-12-01T22:03:00.039Z,40.33
2017-12-01T22:05:27.511Z,34.17
2017-12-01T22:07:55.747Z,34.60
2017-12-01T22:10:23.230Z,30.10
2017-12-01T22:12:50.707Z,34.13
2017-12-01T22:15:19.099Z,31.47
2017-12-01T22:17:46.611Z,35.57
2017-12-01T22:20:14.195Z,33.00
2017-12-01T22:22:41.699Z,30.70
2017-12-01T22:25:09.222Z,35.50
2017-12-01T22:27:37.455Z,36.67
2017-12-01T22:30:05.035Z,36.53
2017-12-01T22:32:32.508Z,36.70
2017-12-01T22:35:00.765Z,38.87
2017-12-01T22:37:28.276Z,43.63
2017-12-01T22:39:55.768Z,35.67
2017-12-01T22:42:23.242Z,44.70
2017-12-01T22:44:50.715Z,41.93
2017-12-01T22:47:18.995Z,44.27
2017-12-01T22:49:46.528Z,37.77
2017-12-01T22:52:13.961Z,40.33
2017-12-01T22:54:41.468Z,43.20
2017-12-01T22:57:09.704Z,34.70
2017-12-01T22:59:37.196Z,36.70
2017-12-01T23:02:06.174Z,43.93
2017-12-01T23:04:33.655Z,42.07
2017-12-01T23:07:01.123Z,39.57
2017-12-01T23:09:29.363Z,42.13
2017-12-01T23:11:56.835Z,38.50
2017-12-01T23:14:25.083Z,39.90
2017-12-01T23:16:52.555Z,35.20
2017-12-01T23:19:20.145Z,37.53
2017-12-01T23:21:47.623Z,41.67
2017-12-01T23:24:15.868Z,37.23
2017-12-01T23:26:43.386Z,41.03
2017-12-01T23:29:10.862Z,36.40
2017-12-01T23:31:38.342Z,34.20
2017-12-01T23:34:05.917Z,35.20
2017-12-01T23:36:33.406Z,34.60
2017-12-01T23:39:00.882Z,34.00
2017-12-01T23:41:28.355Z,32.90
2017-12-01T23:43:55.835Z,33.27
2017-12-01T23:46:23.311Z,31.43
2017-12-01T23:48:51.551Z,33.87
2017-12-01T23:51:19.136Z,34.03
2017-12-01T23:53:46.606Z,39.97
2017-12-01T23:56:14.846Z,36.40
2017-12-01T23:58:42.313Z,41.80
